YPGV/GOV METAR and TAF weather

Enter ICAO airport designator
Station Type Date Time Source
YPGV METAR 2023/02/04 03:30 UTC NOAA

YPGV 040330Z AUTO 35006KT 9999 // SCT094 27/23 Q1005 RF00.0/002.8 DL-N/DL-NW


Station Type Date Time Source
YPGV Decoded METAR 2023/02/04 03:30 UTC NOAA

Station name not available
Feb 03, 2023 - 10:30 PM EST / 2023.02.04 0330 UTC
Wind: from the N (350 degrees) at 7 MPH (6 KT):0
Visibility: greater than 7 mile(s):0
Sky conditions: partly cloudy
Temperature: 80 F (27 C)
Dew Point: 73 F (23 C)
Relative Humidity: 78%
Pressure (altimeter): 29.68 in. Hg (1005 hPa)
ob: YPGV 040330Z AUTO 35006KT 9999 // SCT094 27/23 Q1005 RF00.0/002.8 DL-N/DL-NW
cycle: 3

Station Type Date Time Source
YPGV TAF 2023/02/04 02:00 UTC NOAA

TAF
AMD YPGV 040224Z 0402/0414 18008KT 9999 SCT030
TEMPO 0402/0408 VRB20G35KT 1000 TSRA BKN010 SCT030CB

Example: see airport list